Time;durP1;ratioP1;P1;durP2;ratioP2;P2;SDS_P1;SDS_P2;PMS_P1;PMS_P2;Temp;Humidity;BMP_temperature;BMP_pressure;BME280_temperature;BME280_humidity;BME280_pressure;Samples;Min_cycle;Max_cycle;Signal;HPM_P1;HPM_P2
2021/09/15 00:02:23;;;;;;;1.83;1.67;;;;;;;20.83;62.65;98661.41;5129822;27;42316;-77
2021/09/15 00:04:51;;;;;;;2.43;2.07;;;;;;;20.80;62.45;98648.28;5129909;27;40198;-78
2021/09/15 00:07:19;;;;;;;1.60;1.50;;;;;;;20.66;62.59;98641.69;5111748;27;41188;-80
2021/09/15 00:09:46;;;;;;;3.17;1.67;;;;;;;20.72;62.42;98650.97;5127771;27;41648;-79
2021/09/15 00:12:15;;;;;;;1.90;1.63;;;;;;;20.69;62.78;98651.28;5129800;27;42454;-77
2021/09/15 00:14:42;;;;;;;1.70;1.60;;;;;;;20.67;62.66;98650.59;5129403;27;39263;-77
2021/09/15 00:17:10;;;;;;;2.47;1.90;;;;;;;20.64;62.59;98654.50;5129003;27;40739;-77
2021/09/15 00:19:37;;;;;;;2.10;1.83;;;;;;;20.62;62.58;98655.66;5129249;27;41790;-78
2021/09/15 00:22:05;;;;;;;1.97;1.83;;;;;;;20.59;62.97;98646.06;5130352;27;42465;-78
2021/09/15 00:24:32;;;;;;;2.10;1.90;;;;;;;20.58;62.77;98648.91;5112501;27;39370;-80
2021/09/15 00:27:00;;;;;;;1.87;1.67;;;;;;;20.56;63.18;98650.91;5129445;27;41911;-79
2021/09/15 00:29:29;;;;;;;2.07;1.80;;;;;;;20.49;63.20;98637.28;5129404;27;43033;-77
2021/09/15 00:31:56;;;;;;;2.33;1.87;;;;;;;20.51;63.95;98631.75;5129351;27;43388;-79
2021/09/15 00:34:29;;;;;;;2.90;2.57;;;;;;;20.50;63.56;98630.06;5111756;27;38757;-79
2021/09/15 00:36:57;;;;;;;1.90;1.70;;;;;;;20.50;64.10;98636.28;5129992;27;42114;-78
2021/09/15 00:39:24;;;;;;;2.63;2.00;;;;;;;20.46;63.79;98628.69;5131858;27;43089;-77
2021/09/15 00:41:52;;;;;;;2.27;1.73;;;;;;;20.48;64.39;98621.31;5132227;27;42847;-77
2021/09/15 00:44:19;;;;;;;3.33;2.43;;;;;;;20.48;65.59;98618.63;5132271;27;41982;-78
2021/09/15 00:46:50;;;;;;;2.67;2.40;;;;;;;20.47;65.34;98615.09;5115279;27;42142;-78
2021/09/15 00:49:18;;;;;;;2.53;2.20;;;;;;;20.37;64.89;98609.88;5132258;27;43787;-79
2021/09/15 00:51:49;;;;;;;4.50;2.50;;;;;;;20.45;64.89;98617.09;5132233;27;42456;-79
2021/09/15 00:54:17;;;;;;;2.60;2.40;;;;;;;20.42;66.29;98610.19;5115288;27;38971;-78
2021/09/15 00:56:46;;;;;;;2.27;2.07;;;;;;;20.43;66.06;98621.78;5132257;27;42797;-78
2021/09/15 00:59:14;;;;;;;2.70;2.33;;;;;;;20.34;65.75;98601.22;5131089;27;42764;-78
2021/09/15 01:01:42;;;;;;;3.30;2.23;;;;;;;20.40;66.07;98614.03;5131901;27;41509;-79
2021/09/15 01:04:12;;;;;;;2.33;1.90;;;;;;;20.39;65.70;98624.00;5132179;27;40066;-78
2021/09/15 01:06:44;;;;;;;2.27;1.80;;;;;;;20.36;65.66;98616.25;5113681;27;41160;-77
2021/09/15 01:09:12;;;;;;;2.50;2.30;;;;;;;20.37;65.66;98615.25;5113696;27;41843;-79
2021/09/15 01:11:42;;;;;;;2.13;1.90;;;;;;;20.27;65.34;98602.91;5114511;27;41155;-78
2021/09/15 01:14:16;;;;;;;2.10;1.90;;;;;;;20.34;65.07;98620.91;5131333;27;39897;-79
2021/09/15 01:17:12;;;;;;;2.57;2.37;;;;;;;20.18;65.04;98599.31;5133296;27;42565;-79
2021/09/15 01:20:06;;;;;;;2.33;1.90;;;;;;;20.25;65.23;98611.13;5120509;27;41699;-78
2021/09/15 01:23:01;;;;;;;2.23;1.73;;;;;;;20.21;65.36;98620.53;5107031;27;41150;-79
2021/09/15 01:25:54;;;;;;;1.77;1.50;;;;;;;20.16;65.34;98612.09;5131207;27;39197;-78
2021/09/15 01:28:35;;;;;;;1.87;1.67;;;;;;;20.13;65.36;98620.50;5114610;27;40726;-79
2021/09/15 01:31:08;;;;;;;2.37;1.77;;;;;;;20.06;65.20;98611.38;5114516;27;41653;-77
2021/09/15 01:33:35;;;;;;;2.70;2.23;;;;;;;20.02;65.83;98610.88;5114862;27;41480;-81
2021/09/15 01:36:03;;;;;;;2.20;2.00;;;;;;;20.02;66.21;98615.41;5114788;27;39780;-80
2021/09/15 01:38:34;;;;;;;2.67;1.80;;;;;;;20.01;65.79;98624.47;5131979;27;42450;-77
2021/09/15 01:41:01;;;;;;;2.33;1.70;;;;;;;19.99;65.48;98615.72;5114568;27;42270;-78
2021/09/15 01:43:30;;;;;;;2.17;1.80;;;;;;;19.98;65.27;98619.41;5131151;27;42363;-78
2021/09/15 01:45:58;;;;;;;1.83;1.60;;;;;;;19.96;65.11;98621.41;5114530;27;39030;-79
2021/09/15 01:48:25;;;;;;;2.03;1.70;;;;;;;19.94;65.15;98612.66;5112534;27;42002;-79
2021/09/15 01:50:53;;;;;;;3.20;2.27;;;;;;;19.91;65.63;98619.19;5131132;27;43008;-77
2021/09/15 01:53:20;;;;;;;2.30;1.63;;;;;;;19.90;65.72;98611.34;5112774;27;42501;-78
2021/09/15 01:55:49;;;;;;;3.00;1.83;;;;;;;19.87;66.11;98612.50;5113800;27;38765;-79
2021/09/15 01:58:37;;;;;;;2.27;1.87;;;;;;;19.75;66.09;98597.66;5130941;27;40602;-79
2021/09/15 02:01:23;;;;;;;2.53;2.17;;;;;;;19.75;66.65;98591.44;5131018;27;43146;-77
2021/09/15 02:04:22;;;;;;;2.60;2.17;;;;;;;19.82;67.52;98597.84;5114083;27;41035;-79
2021/09/15 02:07:05;;;;;;;2.67;1.87;;;;;;;19.82;66.86;98601.38;5111327;27;39228;-78
2021/09/15 02:09:52;;;;;;;2.13;1.90;;;;;;;19.80;66.93;98591.78;5131079;27;42585;-79
2021/09/15 02:12:26;;;;;;;2.80;2.10;;;;;;;19.83;66.63;98594.16;5114021;27;41782;-79
2021/09/15 02:14:54;;;;;;;2.63;2.20;;;;;;;19.85;66.36;98586.78;5131281;27;43303;-79
2021/09/15 02:17:22;;;;;;;1.73;1.63;;;;;;;19.85;66.57;98582.25;5131262;27;41261;-78
2021/09/15 02:19:54;;;;;;;1.83;1.53;;;;;;;19.89;66.20;98590.84;5113651;27;41577;-80
2021/09/15 02:22:42;;;;;;;3.20;2.00;;;;;;;19.92;66.40;98582.41;5113832;27;41903;-78
2021/09/15 02:25:16;;;;;;;2.17;1.97;;;;;;;19.90;66.52;98587.97;5111550;27;41673;-77
2021/09/15 02:28:23;;;;;;;1.63;1.47;;;;;;;19.84;66.43;98575.19;5051308;28;40113;-77
2021/09/15 02:31:17;;;;;;;2.80;1.83;;;;;;;19.79;66.51;98572.13;5065243;28;41934;-79
2021/09/15 02:33:59;;;;;;;3.00;1.80;;;;;;;19.75;66.26;98570.78;5130593;27;43080;-80
2021/09/15 02:36:33;;;;;;;2.07;1.83;;;;;;;19.76;66.02;98579.69;5132474;27;41295;-77
2021/09/15 02:39:34;;;;;;;1.77;1.67;;;;;;;19.72;66.18;98577.31;5131028;27;38797;-79
2021/09/15 02:42:15;;;;;;;2.23;1.77;;;;;;;19.75;66.00;98580.69;5149613;27;42883;-79
2021/09/15 02:45:01;;;;;;;1.73;1.63;;;;;;;19.73;66.11;98573.63;5132292;27;42236;-80
2021/09/15 02:47:37;;;;;;;2.60;1.70;;;;;;;19.77;65.74;98568.78;5136779;27;42694;-79
2021/09/15 02:50:23;;;;;;;4.20;2.00;;;;;;;19.79;65.67;98568.59;5113617;27;39303;-78
2021/09/15 02:53:23;;;;;;;2.13;1.67;;;;;;;19.79;65.70;98565.91;5114011;27;40755;-79
2021/09/15 02:56:10;;;;;;;1.77;1.67;;;;;;;19.80;65.63;98573.81;5131176;27;44786;-79
2021/09/15 02:59:01;;;;;;;1.83;1.70;;;;;;;19.78;65.68;98566.94;5114269;27;43038;-77
2021/09/15 03:01:44;;;;;;;2.10;1.83;;;;;;;19.71;65.59;98564.03;5130673;27;41017;-79
2021/09/15 03:04:21;;;;;;;1.90;1.80;;;;;;;19.74;65.58;98569.09;5129914;27;41720;-79
2021/09/15 03:07:24;;;;;;;1.50;1.33;;;;;;;19.71;65.65;98564.88;5067577;28;43822;-77
2021/09/15 03:09:52;;;;;;;2.00;1.70;;;;;;;19.56;65.73;98539.59;5096289;27;41469;-77
2021/09/15 03:12:20;;;;;;;1.77;1.67;;;;;;;19.66;65.83;98555.59;5109309;28;39367;-78
2021/09/15 03:14:48;;;;;;;1.67;1.50;;;;;;;19.74;65.76;98555.66;5109487;28;41564;-78
2021/09/15 03:17:18;;;;;;;1.40;1.30;;;;;;;19.64;65.71;98536.13;5108824;28;43314;-77
2021/09/15 03:19:46;;;;;;;2.53;1.70;;;;;;;19.76;65.45;98556.34;5092229;28;41240;-78
2021/09/15 03:22:13;;;;;;;2.27;1.80;;;;;;;19.70;65.64;98547.06;5092302;28;41226;-79
2021/09/15 03:24:42;;;;;;;2.47;1.80;;;;;;;19.74;65.50;98555.66;5093024;28;40892;-78
2021/09/15 03:27:10;;;;;;;2.47;1.90;;;;;;;19.69;65.39;98550.75;5125870;27;42902;-79
2021/09/15 03:29:38;;;;;;;2.07;1.93;;;;;;;19.75;65.68;98560.03;5092664;28;42037;-79
2021/09/15 03:32:06;;;;;;;2.00;1.80;;;;;;;19.71;65.34;98554.13;5111189;28;40245;-79
2021/09/15 03:34:36;;;;;;;1.97;1.77;;;;;;;19.76;65.32;98552.81;5109982;28;42082;-77
2021/09/15 03:37:04;;;;;;;1.70;1.60;;;;;;;19.77;65.17;98546.44;5126147;27;43148;-78
2021/09/15 03:39:32;;;;;;;2.03;1.80;;;;;;;19.77;65.29;98549.97;5108923;28;43183;-79
2021/09/15 03:42:00;;;;;;;1.53;1.43;;;;;;;19.78;65.43;98550.81;5108792;28;40255;-79
2021/09/15 03:44:28;;;;;;;1.63;1.50;;;;;;;19.82;65.70;98539.56;5091704;28;40647;-78
2021/09/15 03:46:56;;;;;;;1.97;1.57;;;;;;;19.87;65.75;98552.53;5108614;28;42322;-78
2021/09/15 03:49:24;;;;;;;1.60;1.47;;;;;;;19.90;65.59;98544.13;5108869;28;42463;-78
2021/09/15 03:51:57;;;;;;;1.27;1.20;;;;;;;19.93;65.39;98538.41;5092138;28;38929;-78
2021/09/15 03:54:24;;;;;;;2.47;2.27;;;;;;;19.96;65.57;98540.78;5108579;28;42694;-78
2021/09/15 03:56:53;;;;;;;2.13;1.60;;;;;;;19.98;65.41;98538.78;5092040;28;41644;-78
2021/09/15 03:59:21;;;;;;;1.77;1.67;;;;;;;19.97;65.73;98537.09;5125229;27;42489;-77
2021/09/15 04:01:49;;;;;;;1.97;1.70;;;;;;;19.98;65.52;98538.78;5108274;28;38980;-78
2021/09/15 04:04:17;;;;;;;2.10;1.63;;;;;;;19.90;65.97;98519.94;5126124;27;41974;-78
2021/09/15 04:06:45;;;;;;;2.10;1.90;;;;;;;19.87;66.24;98525.66;5092123;28;42085;-78
2021/09/15 04:09:15;;;;;;;2.40;2.13;;;;;;;19.99;66.13;98535.09;5105565;27;41429;-78
2021/09/15 04:11:44;;;;;;;2.03;1.83;;;;;;;19.98;66.25;98528.03;5109216;28;40895;-79
2021/09/15 04:14:12;;;;;;;2.00;1.70;;;;;;;19.97;66.37;98537.09;5128688;27;41667;-79
2021/09/15 04:16:40;;;;;;;2.10;1.90;;;;;;;19.97;66.73;98534.41;5112331;27;42763;-79
2021/09/15 04:19:08;;;;;;;2.30;2.07;;;;;;;19.96;66.62;98530.03;5129103;27;42461;-77
2021/09/15 04:21:36;;;;;;;1.70;1.60;;;;;;;19.95;66.43;98537.25;5128480;27;40111;-78
2021/09/15 04:24:21;;;;;;;2.00;1.87;;;;;;;19.96;66.96;98535.41;5108213;28;40784;-77
2021/09/15 04:32:20;;;;;;;2.10;1.90;;;;;;;19.94;66.74;98532.03;5129594;27;40361;-79
2021/09/15 04:34:48;;;;;;;1.93;1.77;;;;;;;19.93;66.25;98524.97;5112065;27;41004;-78
2021/09/15 04:37:16;;;;;;;1.67;1.27;;;;;;;19.93;66.41;98527.66;5128368;27;43646;-79
2021/09/15 04:39:45;;;;;;;1.60;1.47;;;;;;;19.96;66.22;98538.09;5111063;27;41302;-78
2021/09/15 04:42:15;;;;;;;1.70;1.60;;;;;;;19.98;66.70;98533.41;5129006;27;40187;-79
2021/09/15 04:44:42;;;;;;;2.87;2.07;;;;;;;19.99;66.54;98529.72;5128740;27;42198;-77
2021/09/15 04:47:10;;;;;;;2.77;1.67;;;;;;;20.01;66.70;98539.31;5127893;27;43842;-78
2021/09/15 04:49:38;;;;;;;2.73;2.20;;;;;;;20.01;66.56;98533.09;5111655;27;41417;-77
2021/09/15 04:52:07;;;;;;;2.23;1.90;;;;;;;20.02;66.36;98532.09;5111868;27;38876;-80
2021/09/15 04:54:34;;;;;;;1.83;1.70;;;;;;;20.02;66.87;98529.41;5111113;27;40676;-77
2021/09/15 04:57:02;;;;;;;3.87;2.17;;;;;;;20.00;67.04;98532.25;5112397;27;41770;-79
2021/09/15 04:59:31;;;;;;;2.03;1.83;;;;;;;19.99;66.86;98524.34;5127756;27;42146;-80
2021/09/15 05:01:59;;;;;;;2.43;2.10;;;;;;;19.98;67.27;98523.50;5110894;27;40143;-78
2021/09/15 05:04:27;;;;;;;2.87;1.97;;;;;;;19.99;67.19;98532.41;5111572;27;40769;-77
2021/09/15 05:07:17;;;;;;;2.30;1.90;;;;;;;19.99;67.15;98537.78;5127528;27;44135;-78
2021/09/15 05:09:45;;;;;;;2.30;1.80;;;;;;;20.00;67.45;98532.25;5127867;27;42561;-78
2021/09/15 05:12:13;;;;;;;3.17;2.07;;;;;;;20.00;67.05;98532.25;5128786;27;40882;-78
2021/09/15 05:14:42;;;;;;;2.30;2.10;;;;;;;20.02;67.37;98534.78;5110446;27;40946;-78
2021/09/15 05:17:10;;;;;;;2.80;2.20;;;;;;;20.01;67.39;98536.63;5127887;27;42968;-77
2021/09/15 05:19:38;;;;;;;2.20;1.90;;;;;;;20.04;67.21;98536.28;5127906;27;42239;-78
2021/09/15 05:22:07;;;;;;;2.07;1.87;;;;;;;19.94;67.22;98516.75;5128135;27;40217;-78
2021/09/15 05:24:35;;;;;;;1.97;1.77;;;;;;;20.08;67.40;98531.41;5112554;27;40785;-79
2021/09/15 05:27:05;;;;;;;1.60;1.50;;;;;;;20.12;67.34;98530.09;5131888;27;43161;-78
2021/09/15 05:29:33;;;;;;;2.23;1.93;;;;;;;19.92;67.01;98501.78;5115137;27;41052;-79
2021/09/15 05:32:03;;;;;;;2.57;2.37;;;;;;;20.19;67.38;98531.09;5114639;27;39480;-78
2021/09/15 05:34:31;;;;;;;3.83;2.10;;;;;;;20.16;67.10;98520.66;5113208;27;41870;-78
2021/09/15 05:36:59;;;;;;;3.07;1.90;;;;;;;20.29;67.52;98542.56;5113051;27;41919;-79
2021/09/15 05:39:27;;;;;;;2.73;2.03;;;;;;;20.32;67.41;98536.84;5114778;27;41042;-79
2021/09/15 05:41:54;;;;;;;2.43;2.23;;;;;;;20.37;67.20;98550.69;5131062;27;40408;-80
2021/09/15 05:44:22;;;;;;;2.60;2.03;;;;;;;20.40;67.54;98544.97;5132040;27;42736;-79
2021/09/15 05:46:51;;;;;;;2.73;2.03;;;;;;;20.41;67.57;98551.19;5105582;27;42685;-78
2021/09/15 05:49:19;;;;;;;2.43;1.93;;;;;;;20.20;67.30;98518.50;5114334;27;41228;-77
2021/09/15 05:51:48;;;;;;;2.40;2.20;;;;;;;20.36;67.43;98538.25;5112749;27;40275;-76
2021/09/15 05:54:16;;;;;;;2.83;2.27;;;;;;;20.49;67.60;98555.75;5113062;27;41125;-76
2021/09/15 05:56:44;;;;;;;3.20;2.33;;;;;;;20.52;67.65;98548.19;5110085;27;42523;-76
2021/09/15 05:59:12;;;;;;;6.43;3.00;;;;;;;20.37;67.88;98525.63;5114318;27;41175;-78
2021/09/15 06:01:39;;;;;;;3.93;2.80;;;;;;;20.63;68.04;98565.88;5130295;27;40190;-79
2021/09/15 06:04:07;;;;;;;2.83;2.53;;;;;;;20.64;68.31;98556.78;5114026;27;41581;-80
2021/09/15 06:06:57;;;;;;;3.30;3.00;;;;;;;20.60;68.40;98555.44;5129536;27;42794;-79
2021/09/15 06:09:27;;;;;;;2.10;1.80;;;;;;;20.66;68.36;98565.50;5114701;27;42267;-79
2021/09/15 06:11:55;;;;;;;3.00;2.60;;;;;;;20.64;68.54;98562.16;5113914;27;38812;-79
2021/09/15 06:14:26;;;;;;;2.53;2.20;;;;;;;20.60;68.66;98550.88;5130524;27;41896;-84
2021/09/15 06:16:55;;;;;;;2.80;2.60;;;;;;;20.60;69.22;98558.13;5131551;27;42830;-81
2021/09/15 06:19:23;;;;;;;1.97;1.77;;;;;;;20.55;69.50;98552.38;5131759;27;43279;-84
2021/09/15 06:22:17;;;;;;;2.50;2.20;;;;;;;20.57;69.73;98550.38;5110246;28;39283;-83
2021/09/15 06:25:06;;;;;;;2.80;2.10;;;;;;;20.53;70.18;98538.25;5116508;27;40741;-81
2021/09/15 06:27:38;;;;;;;2.63;2.27;;;;;;;20.69;70.15;98551.72;5113848;27;41968;-82
2021/09/15 06:30:06;;;;;;;3.07;2.77;;;;;;;20.76;70.11;98542.00;5097018;27;41456;-81
2021/09/15 06:32:34;;;;;;;3.27;2.47;;;;;;;20.88;70.21;98547.88;5131272;27;39384;-82
2021/09/15 06:35:02;;;;;;;3.97;2.30;;;;;;;20.92;70.14;98547.34;5109716;28;42022;-82
2021/09/15 06:37:31;;;;;;;3.73;2.97;;;;;;;20.94;70.25;98553.41;5111023;28;42584;-81
2021/09/15 06:39:59;;;;;;;3.93;2.90;;;;;;;20.95;70.31;98555.09;5109037;28;41033;-82
2021/09/15 06:42:26;;;;;;;3.27;2.70;;;;;;;20.98;70.15;98564.69;5108552;28;41506;-78
2021/09/15 06:44:54;;;;;;;4.67;3.60;;;;;;;20.98;70.27;98568.22;5112912;27;41113;-81
2021/09/15 06:47:22;;;;;;;5.10;3.30;;;;;;;20.93;70.15;98573.25;5133633;27;43071;-85
2021/09/15 06:49:50;;;;;;;4.97;3.17;;;;;;;20.93;70.51;98578.66;5112693;27;42114;-82
2021/09/15 06:52:18;;;;;;;3.17;2.37;;;;;;;20.96;70.96;98589.09;5113637;27;40232;-83
2021/09/15 06:54:49;;;;;;;3.67;2.80;;;;;;;20.97;70.83;98598.00;5113569;27;40858;-81
2021/09/15 06:57:18;;;;;;;3.83;2.70;;;;;;;20.87;70.61;98590.09;5130723;27;42189;-80
2021/09/15 06:59:46;;;;;;;3.53;3.13;;;;;;;20.95;70.91;98591.94;5112480;27;41590;-79
2021/09/15 07:02:13;;;;;;;3.40;3.10;;;;;;;20.93;71.10;98588.56;5126184;27;40466;-82
2021/09/15 07:04:41;;;;;;;4.13;3.00;;;;;;;20.95;71.37;98584.72;5129156;27;42519;-79
2021/09/15 07:07:09;;;;;;;4.17;3.20;;;;;;;21.03;71.42;98573.94;5136152;27;42713;-81
2021/09/15 07:09:36;;;;;;;3.50;2.80;;;;;;;21.04;72.69;98572.91;5089218;28;42447;-80
2021/09/15 07:12:07;;;;;;;4.63;3.90;;;;;;;21.02;72.93;98588.41;5107359;28;39409;-82
2021/09/15 07:14:34;;;;;;;3.43;2.80;;;;;;;21.00;73.24;98600.38;5137657;27;41737;-79
2021/09/15 07:17:02;;;;;;;3.30;3.00;;;;;;;21.03;73.00;98586.56;5114557;27;42817;-89
2021/09/15 07:19:30;;;;;;;3.53;2.87;;;;;;;21.01;73.35;98580.53;5127108;27;41357;-81
2021/09/15 07:21:58;;;;;;;4.90;2.80;;;;;;;21.09;72.63;98594.81;5127635;27;38899;-83
2021/09/15 07:24:25;;;;;;;4.57;3.23;;;;;;;21.17;73.00;98608.25;5127897;27;41764;-79
2021/09/15 07:26:53;;;;;;;3.50;2.87;;;;;;;21.07;73.49;98587.91;5145362;27;42988;-78
2021/09/15 07:29:22;;;;;;;4.30;3.23;;;;;;;21.22;73.56;98609.66;5127750;27;41346;-81
2021/09/15 07:31:50;;;;;;;3.30;2.57;;;;;;;21.27;73.30;98612.66;5112525;27;41290;-78
2021/09/15 07:34:18;;;;;;;3.47;3.17;;;;;;;21.33;73.23;98617.38;5128040;27;42013;-82
2021/09/15 07:36:45;;;;;;;6.77;4.03;;;;;;;21.39;74.01;98611.31;5128259;27;42920;-77
2021/09/15 07:39:13;;;;;;;4.57;3.63;;;;;;;21.16;73.59;98579.66;5129190;27;43272;-79
2021/09/15 07:41:41;;;;;;;4.90;3.13;;;;;;;21.44;73.86;98619.72;5112036;27;38953;-83
2021/09/15 07:44:09;;;;;;;5.23;3.33;;;;;;;21.48;74.01;98619.22;5129603;27;41030;-81
2021/09/15 07:46:38;;;;;;;4.33;3.13;;;;;;;21.46;73.98;98618.56;5112031;27;43406;-80
2021/09/15 07:49:06;;;;;;;5.23;3.97;;;;;;;21.40;74.17;98607.59;5130426;27;43217;-82
2021/09/15 07:51:33;;;;;;;4.97;3.97;;;;;;;21.31;75.06;98597.84;5129711;27;39935;-83
2021/09/15 07:54:01;;;;;;;3.30;2.97;;;;;;;21.42;75.13;98621.75;5112296;27;40835;-83
2021/09/15 07:56:30;;;;;;;3.60;3.27;;;;;;;21.41;75.44;98603.91;5112078;27;43258;-83
2021/09/15 07:58:58;;;;;;;4.33;3.57;;;;;;;21.53;75.60;98613.31;5108167;28;41364;-82
2021/09/15 08:01:26;;;;;;;3.10;2.80;;;;;;;21.59;75.80;98614.50;5108859;28;38954;-81
2021/09/15 08:03:55;;;;;;;3.87;2.77;;;;;;;21.64;75.21;98618.34;5126238;27;41689;-80
2021/09/15 08:06:23;;;;;;;4.37;3.20;;;;;;;21.65;75.33;98601.16;5104700;27;43156;-82
2021/09/15 08:08:51;;;;;;;4.20;3.60;;;;;;;21.72;75.65;98607.56;5111378;27;41215;-78
2021/09/15 08:11:18;;;;;;;8.17;3.30;;;;;;;21.80;75.23;98615.59;5128755;27;39881;-77
2021/09/15 08:13:46;;;;;;;3.17;2.80;;;;;;;21.84;75.32;98616.94;5127900;27;40853;-76
2021/09/15 08:16:14;;;;;;;4.60;4.13;;;;;;;21.87;75.52;98615.78;5127798;27;42175;-77
2021/09/15 08:18:42;;;;;;;4.47;3.40;;;;;;;21.85;75.69;98618.63;5127877;27;42198;-76
2021/09/15 08:21:11;;;;;;;3.60;2.73;;;;;;;21.80;76.60;98621.00;5128150;27;40836;-76
2021/09/15 08:23:38;;;;;;;3.47;2.80;;;;;;;21.63;77.17;98614.00;5128476;27;42098;-82
2021/09/15 08:26:06;;;;;;;2.50;2.30;;;;;;;21.54;77.73;98606.91;5130843;27;42946;-82
2021/09/15 08:28:37;;;;;;;2.60;2.13;;;;;;;21.51;77.59;98620.75;5129178;27;43314;-80
2021/09/15 08:31:05;;;;;;;4.93;2.13;;;;;;;21.45;77.76;98611.47;5129125;27;39836;-83
2021/09/15 08:33:32;;;;;;;4.40;2.30;;;;;;;21.67;77.69;98620.69;5112282;27;40751;-84
2021/09/15 08:36:00;;;;;;;4.53;2.63;;;;;;;21.74;77.26;98605.53;5112013;27;43082;-83
2021/09/15 08:38:29;;;;;;;2.47;2.27;;;;;;;21.92;76.93;98607.16;5129432;27;41538;-83
2021/09/15 08:40:57;;;;;;;2.50;1.90;;;;;;;22.05;77.16;98604.78;5112960;27;39107;-83
2021/09/15 08:43:25;;;;;;;1.70;1.60;;;;;;;22.28;76.52;98611.06;5111479;27;41334;-85
2021/09/15 08:45:56;;;;;;;2.83;1.90;;;;;;;22.38;76.05;98598.19;5112285;27;41937;-80
2021/09/15 08:48:25;;;;;;;2.03;1.83;;;;;;;22.50;75.86;98612.16;5128132;27;41518;-82
2021/09/15 08:50:53;;;;;;;2.33;2.13;;;;;;;22.56;76.03;98601.47;5129231;27;40201;-86
2021/09/15 08:53:21;;;;;;;2.40;1.87;;;;;;;22.53;75.60;98572.13;5110404;27;41545;-83
2021/09/15 08:55:50;;;;;;;2.37;1.80;;;;;;;22.78;74.84;98599.84;5128363;27;42720;-82
2021/09/15 08:58:19;;;;;;;1.70;1.60;;;;;;;22.89;74.93;98617.47;5112396;27;42400;-85
2021/09/15 09:00:48;;;;;;;1.70;1.60;;;;;;;22.86;75.12;98620.56;5132507;27;41503;-78
2021/09/15 09:03:15;;;;;;;2.67;2.30;;;;;;;22.81;74.86;98609.44;5131432;27;41787;-78
2021/09/15 09:05:43;;;;;;;1.77;1.63;;;;;;;22.78;74.64;98609.81;5132546;27;43914;-81
2021/09/15 09:08:20;;;;;;;2.67;2.00;;;;;;;22.79;74.93;98616.88;5110719;28;43331;-87
2021/09/15 09:10:53;;;;;;;1.73;1.63;;;;;;;22.81;75.11;98615.69;5112753;28;41278;-83
2021/09/15 09:13:20;;;;;;;1.43;1.33;;;;;;;22.80;74.77;98619.41;5116023;27;42576;-80
2021/09/15 09:15:51;;;;;;;2.10;1.63;;;;;;;22.77;74.64;98621.63;5132482;27;43233;-79
2021/09/15 09:18:21;;;;;;;1.70;1.57;;;;;;;22.80;74.50;98618.56;5131688;27;42579;-82
2021/09/15 09:20:49;;;;;;;2.67;1.87;;;;;;;22.76;74.67;98611.84;5114994;27;38780;-84
2021/09/15 09:23:20;;;;;;;2.03;1.83;;;;;;;22.82;74.16;98616.53;5111679;27;41060;-79
2021/09/15 09:25:57;;;;;;;1.90;1.47;;;;;;;22.88;73.87;98615.81;5102667;27;41979;-76
2021/09/15 09:28:29;;;;;;;2.33;2.13;;;;;;;22.90;73.98;98616.47;5133183;27;43234;-80
2021/09/15 09:30:59;;;;;;;3.17;1.83;;;;;;;22.86;74.14;98623.28;5114616;27;39456;-81
2021/09/15 09:33:27;;;;;;;3.23;2.00;;;;;;;22.66;74.28;98609.34;5130605;27;41867;-84
2021/09/15 09:35:58;;;;;;;2.90;2.07;;;;;;;22.61;74.51;98624.41;5130893;27;43119;-82
2021/09/15 09:38:29;;;;;;;2.40;2.10;;;;;;;22.50;74.71;98618.38;5130657;27;42281;-82
2021/09/15 09:41:10;;;;;;;3.70;2.40;;;;;;;22.40;75.20;98622.31;5131073;27;40019;-80
2021/09/15 09:43:40;;;;;;;2.97;2.27;;;;;;;22.37;75.79;98618.13;5131757;27;41960;-81
2021/09/15 09:46:10;;;;;;;2.43;2.23;;;;;;;22.30;76.00;98613.59;5131147;27;42866;-83
2021/09/15 09:48:43;;;;;;;2.10;1.53;;;;;;;22.17;75.65;98584.50;5097374;27;41688;-79
2021/09/15 09:51:24;;;;;;;2.60;2.03;;;;;;;22.28;76.04;98585.94;5131409;27;40091;-83
2021/09/15 09:54:05;;;;;;;1.93;1.70;;;;;;;22.27;75.92;98590.50;5112000;28;41688;-83
2021/09/15 09:56:35;;;;;;;3.50;2.53;;;;;;;22.24;75.98;98569.28;5108942;27;42770;-82
2021/09/15 09:59:05;;;;;;;2.17;1.97;;;;;;;22.46;75.44;98597.34;5131677;27;42311;-83
2021/09/15 10:01:36;;;;;;;2.50;1.40;;;;;;;22.64;75.23;98605.13;5115029;27;40934;-83
2021/09/15 10:04:04;;;;;;;2.97;2.43;;;;;;;22.73;74.88;98596.81;5131230;27;40601;-83
2021/09/15 10:06:33;;;;;;;3.63;2.17;;;;;;;22.95;74.09;98599.72;5131708;27;43822;-83
2021/09/15 10:09:02;;;;;;;2.70;1.83;;;;;;;23.02;74.32;98600.69;5131849;27;42742;-83
2021/09/15 10:11:31;;;;;;;4.17;1.97;;;;;;;22.94;74.29;98585.38;5125334;27;40265;-83
2021/09/15 10:14:02;;;;;;;2.40;1.77;;;;;;;22.96;74.22;98591.47;5128489;27;42763;-83
2021/09/15 10:16:30;;;;;;;2.00;1.80;;;;;;;23.02;73.99;98606.91;5128874;27;42018;-83
2021/09/15 10:19:01;;;;;;;2.03;1.80;;;;;;;23.02;74.09;98612.31;5136251;27;43011;-83
2021/09/15 10:21:31;;;;;;;2.27;2.07;;;;;;;22.90;74.03;98597.56;5124070;27;40158;-83
2021/09/15 10:24:00;;;;;;;4.37;1.93;;;;;;;22.93;74.33;98616.94;5137130;27;41688;-83
2021/09/15 10:26:36;;;;;;;2.33;2.00;;;;;;;22.88;74.14;98615.81;5124092;27;42050;-83
2021/09/15 10:29:26;;;;;;;3.17;2.03;;;;;;;22.78;74.50;98607.94;5121109;27;41283;-83
2021/09/15 10:31:58;;;;;;;2.00;1.83;;;;;;;22.63;75.16;98607.00;5132654;27;40711;-78
2021/09/15 10:34:52;;;;;;;2.27;1.97;;;;;;;22.52;75.46;98600.16;5123577;27;42496;-82
2021/09/15 10:37:53;;;;;;;2.47;2.27;;;;;;;22.50;75.43;98601.38;5109288;27;42074;-81
2021/09/15 10:40:38;;;;;;;2.10;1.90;;;;;;;22.51;75.38;98584.97;5110562;27;41515;-79
2021/09/15 10:43:43;;;;;;;2.23;1.90;;;;;;;22.64;75.05;98597.03;5127664;27;40326;-78
2021/09/15 10:46:38;;;;;;;2.47;1.53;;;;;;;22.88;74.75;98586.94;5127561;27;43040;-78
2021/09/15 10:49:42;;;;;;;4.20;1.90;;;;;;;23.52;74.20;98575.75;5108257;27;41757;-79
2021/09/15 10:52:29;;;;;;;4.10;2.37;;;;;;;24.23;73.03;98574.28;5132815;27;42539;-82
2021/09/15 10:54:59;;;;;;;2.37;2.13;;;;;;;24.90;71.11;98563.97;5089593;28;39890;-77
2021/09/15 10:57:35;;;;;;;2.30;2.10;;;;;;;25.31;69.03;98544.34;5088870;28;42241;-81
2021/09/15 11:00:09;;;;;;;2.03;1.83;;;;;;;25.70;68.07;98568.22;5148103;27;42644;-85
2021/09/15 11:02:41;;;;;;;2.37;2.17;;;;;;;26.09;67.42;98562.97;5127318;27;42515;-84
2021/09/15 11:05:44;;;;;;;2.40;2.10;;;;;;;26.48;64.90;98564.22;5127273;27;40487;-77
2021/09/15 11:08:21;;;;;;;2.17;1.97;;;;;;;26.51;63.95;98560.25;5115415;27;41976;-80
2021/09/15 11:10:49;;;;;;;2.37;2.17;;;;;;;26.36;64.67;98560.41;5137018;27;42803;-81
2021/09/15 11:13:38;;;;;;;2.47;1.93;;;;;;;26.09;65.33;98546.69;5141864;27;42270;-79
2021/09/15 11:16:35;;;;;;;2.43;2.23;;;;;;;25.67;65.76;98549.63;5129282;27;40441;-81
2021/09/15 11:19:18;;;;;;;6.43;4.53;;;;;;;25.30;66.27;98529.94;5130966;27;41065;-83
2021/09/15 11:21:49;;;;;;;2.80;2.23;;;;;;;24.95;66.70;98533.63;5122483;27;42297;-83
2021/09/15 11:24:21;;;;;;;1.70;1.60;;;;;;;24.66;67.27;98521.88;5129150;27;42551;-83
2021/09/15 11:26:51;;;;;;;2.27;1.80;;;;;;;24.38;67.88;98529.06;5147961;27;40237;-78
2021/09/15 11:29:42;;;;;;;2.20;1.77;;;;;;;23.95;68.46;98526.25;5137478;27;42912;-84
2021/09/15 11:32:12;;;;;;;1.50;1.40;;;;;;;23.52;70.06;98516.28;5132490;27;43232;-85
2021/09/15 11:34:43;;;;;;;2.13;1.53;;;;;;;23.37;70.67;98523.56;5109971;27;41952;-79
2021/09/15 11:37:19;;;;;;;1.30;1.20;;;;;;;23.26;71.97;98528.34;5131966;27;40964;-82
2021/09/15 11:39:53;;;;;;;1.17;1.10;;;;;;;23.16;71.79;98522.38;5137737;27;41969;-81
2021/09/15 11:42:23;;;;;;;2.43;1.60;;;;;;;23.12;71.97;98529.16;5126604;27;42609;-79
2021/09/15 11:44:50;;;;;;;1.60;1.37;;;;;;;22.98;72.38;98524.59;5107135;27;41286;-81
2021/09/15 11:47:24;;;;;;;1.23;1.07;;;;;;;23.04;72.67;98531.13;5111328;27;39987;-76
2021/09/15 11:49:53;;;;;;;2.67;1.67;;;;;;;23.00;73.41;98533.34;5128602;27;41753;-77
2021/09/15 11:52:22;;;;;;;1.33;1.23;;;;;;;22.92;73.29;98533.41;5124419;27;42952;-80
2021/09/15 11:54:53;;;;;;;1.70;1.50;;;;;;;22.88;73.27;98524.00;5126999;27;42302;-80
2021/09/15 11:57:31;;;;;;;1.80;1.50;;;;;;;22.72;73.87;98540.31;5109407;27;40207;-80
2021/09/15 12:00:01;;;;;;;1.83;1.60;;;;;;;22.57;74.71;98538.38;5128320;27;41688;-80
2021/09/15 12:02:30;;;;;;;1.87;1.50;;;;;;;22.37;75.31;98531.78;5117200;27;42407;-87
2021/09/15 12:05:02;;;;;;;2.87;1.37;;;;;;;22.21;76.96;98540.81;5147774;27;42233;-93